Terminal Aerodrome Forecast
Issued by NWS

Home | Current Version | Previous Version | Graphics & Text | Print | Product List | Glossary Off
Versions: 1 2 3 4 5 6 7 8 9 10 11 12 13 14 15

000
FTUS43 KDDC 102222 AAA
TAFGCK
TAF AMD
KGCK 102222Z 1022/1118 33007KT P6SM SKC
     FM110000 28007KT P6SM SKC
     FM111300 31013KT P6SM SKC
     FM111700 33017G25KT P6SM SKC=

USA.gov is the U.S. government's official web portal to all federal, state and local government web resources and services.